Strona główna
METAR-TAF:

METAR-TAF

Lotnisko :

Lotnisko Mönchengladbach

Mönchengladbach, Niemcy

Szerokość geograficzna: 51-13-49N, Długość geograficzna: 006-30-16E, wysokość: 38 m

Aktualna obserwacja pogody

Raport powstał 26 minut temu, godzina 20:20 UTC
Wiatr 2 kt z kierunków zmiennych
Temperatura 17°C
Wilgotność 77%
Ciśnienie 1013 hPa
Widzialność 10 km lub więcej

METAR: EDLN 172020Z AUTO VRB02KT 9999 // SCT210/// 17/13 Q1013

czas: 22:46 (20:46 UTC)

Prognoza

Raport powstał 3 godziny i 46 minut temu, godzina 17:00 UTC
Prognoza ważna od 17 godzina 18 UTC do 18 godzina 03 UTC
Wiatr 7 kt od północ
Widzialność 10 km lub więcej
Brak chmur poniżej 1500 m i brak chmur cumulonimbus
Stopniowe zmiany
od 17 godzina 18 UTC do 17 godzina 21 UTC
Wiatr 3 kt z kierunków zmiennych

TAF: EDLN 171700Z 1718/1803 35007KT CAVOK BECMG 1718/1721 VRB03KT

Obserwacja i prognoza pogody dla ponad 4000 lotnisk (raport METAR i TAF).

Dostępne stacje oznaczono żółtymi i czerwonymi punktami na mapie.

Najedź kursorem aby zobaczyć nazwę stacji.

Kliknij aby zobaczyć obserwacje i prognozy pogody.

Aby zmienić mapę: kliknij na zielony przycisk z czarnym krzyżykiem, aby powiększyć; na zielony przycisk z myślnikiem, aby pomniejszyć; na zielone strzałki, aby przejść do map sąsiednich.


METAR-TAF: